Time;durP1;ratioP1;P1;durP2;ratioP2;P2;SDS_P1;SDS_P2;PMS_P1;PMS_P2;Temp;Humidity;BMP_temperature;BMP_pressure;BME280_temperature;BME280_humidity;BME280_pressure;Samples;Min_cycle;Max_cycle;Signal;HPM_P1;HPM_P2
2023/12/21 00:00:14;;;;;;;13.10;12.70;;;;;;;-141.02;100.00;45747.53;5112546;28;20230;-68
2023/12/21 00:02:41;;;;;;;13.63;13.23;;;;;;;-141.02;100.00;45816.72;5112671;28;20203;-69
2023/12/21 00:05:10;;;;;;;16.40;15.80;;;;;;;-141.02;100.00;45828.22;5112350;28;20197;-68
2023/12/21 00:07:37;;;;;;;13.80;13.40;;;;;;;-141.02;100.00;45561.16;5112589;28;20223;-67
2023/12/21 00:10:05;;;;;;;13.97;13.57;;;;;;;-141.02;100.00;44917.59;5112292;28;20689;-68
2023/12/21 00:12:32;;;;;;;14.50;14.00;;;;;;;-141.02;100.00;45132.75;5112235;28;20200;-67
2023/12/21 00:14:58;;;;;;;13.67;13.27;;;;;;;-141.02;100.00;45175.00;5112287;28;20563;-67
2023/12/21 00:17:25;;;;;;;14.00;13.57;;;;;;;-141.02;100.00;45217.28;5112553;28;20189;-68
2023/12/21 00:19:52;;;;;;;13.67;13.27;;;;;;;-141.02;100.00;45501.59;5112520;28;20233;-68
2023/12/21 00:22:21;;;;;;;13.03;12.63;;;;;;;-141.02;100.00;45997.31;5112268;28;20288;-67
2023/12/21 00:24:47;;;;;;;12.27;11.87;;;;;;;-141.02;100.00;45505.44;5112502;28;20193;-67
2023/12/21 00:27:14;;;;;;;12.77;12.37;;;;;;;-141.02;100.00;45440.13;5112175;28;20199;-68
2023/12/21 00:29:41;;;;;;;13.40;13.00;;;;;;;-141.02;100.00;44996.34;5112134;28;20284;-68
2023/12/21 00:32:08;;;;;;;13.60;13.20;;;;;;;-141.02;100.00;44744.72;5112408;28;20252;-68
2023/12/21 00:34:35;;;;;;;14.30;13.80;;;;;;;-141.02;100.00;44675.56;5112408;28;20204;-68
2023/12/21 00:37:02;;;;;;;14.53;14.03;;;;;;;-141.02;100.00;44516.13;5112291;28;20201;-68
2023/12/21 00:39:30;;;;;;;17.50;16.73;;;;;;;-141.02;100.00;44479.66;5111999;28;20228;-68
2023/12/21 00:41:57;;;;;;;13.90;13.50;;;;;;;-141.02;100.00;44279.91;5112306;28;20236;-68
2023/12/21 00:44:24;;;;;;;14.30;13.80;;;;;;;-141.02;100.00;44281.81;5112351;28;20199;-69
2023/12/21 00:46:51;;;;;;;12.77;12.37;;;;;;;-141.02;100.00;44260.69;5114289;28;20219;-68
2023/12/21 00:49:18;;;;;;;12.90;12.50;;;;;;;-141.02;100.00;44295.25;5115816;28;20193;-69
2023/12/21 00:51:45;;;;;;;12.60;12.20;;;;;;;-141.02;100.00;44383.59;5116125;28;20571;-68
2023/12/21 00:54:12;;;;;;;13.17;12.77;;;;;;;-141.02;100.00;44429.72;5116006;28;20197;-69
2023/12/21 00:56:40;;;;;;;13.50;13.10;;;;;;;-141.02;100.00;44523.81;5115551;28;20228;-68
2023/12/21 00:59:07;;;;;;;11.70;11.40;;;;;;;-141.02;100.00;44788.88;5115492;28;20663;-68
2023/12/21 01:01:34;;;;;;;12.83;12.43;;;;;;;-141.02;100.00;45311.41;5115655;28;20203;-68
2023/12/21 01:04:01;;;;;;;12.30;11.90;;;;;;;-141.02;100.00;45347.91;5115566;28;20197;-68
2023/12/21 01:06:28;;;;;;;20.80;14.57;;;;;;;-141.02;100.00;45589.97;5115487;28;20193;-69
2023/12/21 01:08:54;;;;;;;11.30;11.00;;;;;;;-141.02;100.00;45832.06;5115730;28;20193;-68
2023/12/21 01:11:21;;;;;;;11.23;10.93;;;;;;;-141.02;100.00;45889.72;5115686;28;20197;-68
2023/12/21 01:13:50;;;;;;;11.10;10.80;;;;;;;-141.02;100.00;45989.63;5115357;28;20726;-67
2023/12/21 01:16:17;;;;;;;11.33;11.03;;;;;;;-141.02;100.00;46120.31;5115332;28;20674;-68
2023/12/21 01:18:44;;;;;;;10.33;10.03;;;;;;;-141.02;100.00;46195.25;5115180;28;20659;-67
2023/12/21 01:21:11;;;;;;;10.47;10.17;;;;;;;-141.02;100.00;46216.38;5115418;28;20220;-67
2023/12/21 01:23:38;;;;;;;11.20;10.90;;;;;;;-141.02;100.00;46097.25;5115164;28;20637;-67
2023/12/21 01:26:05;;;;;;;11.57;11.23;;;;;;;-141.02;100.00;46093.41;5115219;28;20280;-67
2023/12/21 01:28:32;;;;;;;11.20;10.90;;;;;;;-141.02;100.00;46231.75;5115369;28;20193;-67
2023/12/21 01:31:00;;;;;;;12.37;11.97;;;;;;;-141.02;100.00;46281.72;5115311;28;20296;-67
2023/12/21 01:33:27;;;;;;;12.73;12.33;;;;;;;-141.02;100.00;46156.81;5115316;28;20276;-68
2023/12/21 01:35:54;;;;;;;11.67;11.37;;;;;;;-141.02;100.00;46293.25;5115234;28;20197;-67
2023/12/21 01:38:21;;;;;;;11.20;10.90;;;;;;;-141.02;100.00;46308.63;5115726;28;20285;-67
2023/12/21 01:40:48;;;;;;;10.10;9.80;;;;;;;-141.02;100.00;46235.59;5114790;28;20236;-67
2023/12/21 01:43:15;;;;;;;11.20;10.90;;;;;;;-141.02;100.00;46054.97;5115156;28;20221;-66
2023/12/21 01:45:41;;;;;;;19.20;17.93;;;;;;;-141.02;100.00;45882.03;5115105;28;20193;-66
2023/12/21 01:48:12;;;;;;;11.10;10.80;;;;;;;-141.02;100.00;46108.78;5115367;28;20311;-66
2023/12/21 01:50:39;;;;;;;56.97;53.90;;;;;;;-141.02;100.00;46064.59;5114681;28;20671;-67
2023/12/21 01:53:07;;;;;;;10.60;10.30;;;;;;;-141.02;100.00;46262.50;5114639;28;20288;-68
2023/12/21 01:55:34;;;;;;;10.80;10.50;;;;;;;-141.02;100.00;46201.03;5114557;28;20250;-66
2023/12/21 01:58:02;;;;;;;11.20;10.80;;;;;;;-141.02;100.00;46439.31;5113956;28;20620;-67
2023/12/21 02:00:31;;;;;;;10.47;10.17;;;;;;;-141.02;100.00;46408.56;5114414;28;20249;-68
2023/12/21 02:02:58;;;;;;;11.20;10.90;;;;;;;-141.02;100.00;46306.72;5114756;28;20279;-67
2023/12/21 02:05:26;;;;;;;10.70;10.40;;;;;;;-141.02;100.00;46516.19;5114331;28;20195;-68
2023/12/21 02:07:53;;;;;;;11.07;10.77;;;;;;;-141.02;100.00;46650.72;5114660;28;20197;-67
2023/12/21 02:10:20;;;;;;;9.90;9.60;;;;;;;-141.02;100.00;46785.25;5114274;28;20193;-67
2023/12/21 02:12:47;;;;;;;10.10;9.80;;;;;;;-141.02;100.00;46881.34;5114235;28;20193;-67
2023/12/21 02:15:14;;;;;;;9.70;9.40;;;;;;;-141.02;100.00;46977.47;5114179;28;20581;-68
2023/12/21 02:17:43;;;;;;;9.00;8.80;;;;;;;-141.02;100.00;46973.63;5114412;28;20201;-68
2023/12/21 02:20:11;;;;;;;10.70;10.40;;;;;;;-141.02;100.00;47013.97;5114359;28;20227;-68
2023/12/21 02:22:43;;;;;;;9.80;9.50;;;;;;;-141.02;100.00;47115.84;5114004;28;20270;-68
2023/12/21 02:25:12;;;;;;;9.30;9.10;;;;;;;-141.02;100.00;47236.97;5114347;28;20181;-69
2023/12/21 02:27:39;;;;;;;9.80;9.50;;;;;;;-141.02;100.00;47281.16;5113901;28;20685;-69
2023/12/21 02:30:07;;;;;;;10.10;9.80;;;;;;;-141.02;100.00;47354.22;5113929;28;20642;-68
2023/12/21 02:32:34;;;;;;;8.10;7.90;;;;;;;-141.02;100.00;47496.47;5114153;28;20203;-69
2023/12/21 02:35:02;;;;;;;10.27;9.97;;;;;;;-141.02;100.00;47484.94;5114577;28;20529;-69
2023/12/21 02:37:28;;;;;;;9.73;9.43;;;;;;;-141.02;100.00;47504.16;5114134;28;20242;-69
2023/12/21 02:39:56;;;;;;;10.20;9.90;;;;;;;-141.02;100.00;47519.53;5113624;28;20714;-70
2023/12/21 02:42:24;;;;;;;8.10;7.90;;;;;;;-141.02;100.00;47504.16;5114015;28;20189;-70
2023/12/21 02:44:51;;;;;;;8.60;8.40;;;;;;;-141.02;100.00;47527.22;5113936;28;20193;-70
2023/12/21 02:47:18;;;;;;;15.57;14.70;;;;;;;-141.02;100.00;47496.47;5113861;28;20193;-70
2023/12/21 02:49:45;;;;;;;9.50;9.20;;;;;;;-141.02;100.00;47582.97;5113806;28;20196;-69
2023/12/21 02:52:12;;;;;;;10.13;9.83;;;;;;;-141.02;100.00;47675.25;5113485;28;20706;-71
2023/12/21 02:54:39;;;;;;;10.80;10.50;;;;;;;-141.02;100.00;47681.03;5113452;27;20284;-70
2023/12/21 02:57:06;;;;;;;8.00;7.80;;;;;;;-141.02;100.00;47734.84;5113322;28;20229;-70
2023/12/21 02:59:34;;;;;;;8.30;8.10;;;;;;;-141.02;100.00;47754.09;5113327;28;20193;-70
2023/12/21 03:02:01;;;;;;;9.43;9.13;;;;;;;-141.02;100.00;47854.06;5113597;28;20287;-71
2023/12/21 03:04:28;;;;;;;9.97;9.67;;;;;;;-141.02;100.00;47852.13;5113511;28;20200;-70
2023/12/21 03:06:55;;;;;;;12.10;11.70;;;;;;;-141.02;100.00;47677.19;5113495;28;20201;-70
2023/12/21 03:09:22;;;;;;;11.60;11.20;;;;;;;-141.02;100.00;47657.97;5112277;28;20675;-71
2023/12/21 03:11:49;;;;;;;9.53;9.23;;;;;;;-141.02;100.00;47671.41;5113407;28;20292;-70
2023/12/21 03:14:16;;;;;;;10.23;9.93;;;;;;;-141.02;100.00;47719.47;5113073;28;20200;-71
2023/12/21 03:16:44;;;;;;;10.57;10.27;;;;;;;-141.02;100.00;47821.38;5112950;27;20329;-69
2023/12/21 03:19:12;;;;;;;12.47;12.03;;;;;;;-141.02;100.00;47784.84;5112977;28;20734;-69
2023/12/21 03:21:39;;;;;;;12.00;11.60;;;;;;;-141.02;100.00;47996.34;5113095;28;20229;-69
2023/12/21 03:24:07;;;;;;;12.37;11.97;;;;;;;-141.02;100.00;48042.47;5113171;28;20284;-69
2023/12/21 03:26:35;;;;;;;10.70;10.40;;;;;;;-141.02;100.00;48000.19;5112911;28;20628;-68
2023/12/21 03:29:02;;;;;;;10.37;10.07;;;;;;;-141.02;100.00;47911.75;5112795;28;20689;-68
2023/12/21 03:31:29;;;;;;;8.67;8.47;;;;;;;-141.02;100.00;48088.63;5112765;28;20189;-70
2023/12/21 03:33:57;;;;;;;12.40;12.00;;;;;;;-141.02;100.00;48061.72;5112683;28;20648;-69
2023/12/21 03:36:26;;;;;;;14.30;13.90;;;;;;;-141.02;100.00;48069.41;5112956;28;20220;-68
2023/12/21 03:38:53;;;;;;;13.63;13.23;;;;;;;-141.02;100.00;48015.56;5112918;28;20193;-69
2023/12/21 03:41:20;;;;;;;8.60;8.40;;;;;;;-141.02;100.00;47896.34;5113725;28;20232;-68
2023/12/21 03:43:47;;;;;;;12.00;11.70;;;;;;;-141.02;100.00;47623.34;5112646;28;20663;-69
2023/12/21 03:46:14;;;;;;;11.23;10.93;;;;;;;-141.02;100.00;47452.25;5112855;28;20281;-68
2023/12/21 03:48:41;;;;;;;11.60;11.30;;;;;;;-141.02;100.00;47244.66;5112605;28;20193;-70
2023/12/21 03:51:09;;;;;;;12.00;11.70;;;;;;;-141.02;100.00;47288.84;5112826;28;20199;-71
2023/12/21 03:53:36;;;;;;;13.10;12.70;;;;;;;-141.02;100.00;47281.16;5112797;28;20193;-73
2023/12/21 03:56:03;;;;;;;11.10;10.80;;;;;;;-141.02;100.00;47204.28;5112226;28;20196;-69
2023/12/21 03:58:30;;;;;;;13.90;13.43;;;;;;;-141.02;100.00;47138.91;5112490;28;20632;-74
2023/12/21 04:00:57;;;;;;;15.17;14.63;;;;;;;-141.02;100.00;46940.94;5112640;28;20228;-72
2023/12/21 04:03:24;;;;;;;15.00;14.50;;;;;;;-141.02;100.00;46800.63;5112348;28;20193;-75
2023/12/21 04:05:50;;;;;;;16.70;16.03;;;;;;;-141.02;100.00;46735.28;5112392;28;20663;-70
2023/12/21 04:08:21;;;;;;;16.40;15.80;;;;;;;-141.02;100.00;46746.81;5112608;28;20279;-70
2023/12/21 04:10:48;;;;;;;16.27;15.67;;;;;;;-141.02;100.00;46731.44;5112297;28;20243;-77
2023/12/21 04:13:15;;;;;;;13.80;13.30;;;;;;;-141.02;100.00;46485.44;5112578;28;20287;-75
2023/12/21 04:15:42;;;;;;;13.60;13.20;;;;;;;-141.02;100.00;46416.25;5112271;28;20225;-73
2023/12/21 04:18:09;;;;;;;14.10;13.70;;;;;;;-141.02;100.00;46343.22;5112250;28;20651;-71
2023/12/21 04:20:36;;;;;;;17.27;16.67;;;;;;;-141.02;100.00;46151.06;5114151;28;20221;-75
2023/12/21 04:23:03;;;;;;;16.27;15.77;;;;;;;-141.02;100.00;46204.88;5116414;28;20284;-75
2023/12/21 04:25:32;;;;;;;14.33;13.93;;;;;;;-141.02;100.00;46149.13;5116332;28;20192;-72
2023/12/21 04:27:59;;;;;;;13.70;13.30;;;;;;;-141.02;100.00;46116.47;5116589;28;20219;-73
2023/12/21 04:30:26;;;;;;;12.83;12.43;;;;;;;-141.02;100.00;46085.72;5116545;28;20276;-71
2023/12/21 04:32:53;;;;;;;13.33;12.93;;;;;;;-141.02;100.00;45955.06;5116122;28;20218;-74
2023/12/21 04:35:20;;;;;;;14.50;14.10;;;;;;;-141.02;100.00;45676.44;5116394;28;20279;-70
2023/12/21 04:37:46;;;;;;;16.80;16.30;;;;;;;-141.02;100.00;45540.03;5116048;28;20284;-70
2023/12/21 04:40:14;;;;;;;18.00;17.40;;;;;;;-141.02;100.00;45470.88;5116232;28;20193;-72
2023/12/21 04:42:44;;;;;;;14.90;14.40;;;;;;;-141.02;100.00;45467.03;5116292;28;20283;-75
2023/12/21 04:45:11;;;;;;;14.73;14.30;;;;;;;-141.02;100.00;45428.59;5115940;28;20190;-74
2023/12/21 04:47:39;;;;;;;15.13;14.63;;;;;;;-141.02;100.00;45386.31;5115953;28;20201;-74
2023/12/21 04:50:07;;;;;;;13.73;13.33;;;;;;;-141.02;100.00;45332.53;5115797;28;20602;-72
2023/12/21 04:52:34;;;;;;;15.97;15.47;;;;;;;-141.02;100.00;45461.25;5115802;28;20201;-70
2023/12/21 04:55:01;;;;;;;15.80;15.30;;;;;;;-141.02;100.00;45493.91;5115972;28;20197;-73
2023/12/21 04:57:29;;;;;;;13.73;13.33;;;;;;;-141.02;100.00;45605.34;5115619;28;20316;-75
2023/12/21 04:59:57;;;;;;;13.50;13.10;;;;;;;-141.02;100.00;45578.44;5116035;28;20200;-74
2023/12/21 05:02:24;;;;;;;13.70;13.30;;;;;;;-141.02;100.00;45582.28;5115872;28;20225;-73
2023/12/21 05:04:51;;;;;;;15.03;14.53;;;;;;;-141.02;100.00;45417.06;5115900;28;20189;-75
2023/12/21 05:07:18;;;;;;;16.60;16.10;;;;;;;-141.02;100.00;45359.44;5115444;28;20236;-70
2023/12/21 05:09:45;;;;;;;15.60;15.10;;;;;;;-141.02;100.00;45194.22;5115516;28;20208;-73
2023/12/21 05:12:12;;;;;;;16.53;16.03;;;;;;;-141.02;100.00;45217.28;5115779;28;20631;-75
2023/12/21 05:14:39;;;;;;;14.43;14.03;;;;;;;-141.02;100.00;45136.59;5115729;28;20284;-73
2023/12/21 05:17:08;;;;;;;14.90;14.40;;;;;;;-141.02;100.00;45203.81;5115369;28;20225;-72
2023/12/21 05:19:35;;;;;;;14.37;13.97;;;;;;;-141.02;100.00;45165.41;5115620;28;20205;-73
2023/12/21 05:22:02;;;;;;;13.03;12.63;;;;;;;-141.02;100.00;45136.59;5115549;28;20307;-75
2023/12/21 05:24:29;;;;;;;15.70;15.20;;;;;;;-141.02;100.00;45148.09;5115201;28;20631;-75
2023/12/21 05:26:56;;;;;;;15.83;15.33;;;;;;;-141.02;100.00;45140.44;5115112;28;20193;-72
2023/12/21 05:29:23;;;;;;;13.27;12.87;;;;;;;-141.02;100.00;45009.78;5115458;28;20203;-76
2023/12/21 05:31:50;;;;;;;13.93;13.53;;;;;;;-141.02;100.00;44883.00;5114453;28;20193;-75
2023/12/21 05:34:18;;;;;;;14.17;13.77;;;;;;;-141.02;100.00;44721.66;5115403;28;20197;-74
2023/12/21 05:36:45;;;;;;;14.90;14.43;;;;;;;-141.02;100.00;44598.72;5115230;28;20189;-75
2023/12/21 05:39:12;;;;;;;13.67;13.27;;;;;;;-141.02;100.00;44502.69;5115280;28;20200;-75
2023/12/21 05:41:40;;;;;;;15.57;15.07;;;;;;;-141.02;100.00;44422.03;5114821;28;20690;-74
2023/12/21 05:44:07;;;;;;;15.37;14.87;;;;;;;-141.02;100.00;44471.97;5114827;28;20193;-75
2023/12/21 05:46:34;;;;;;;14.10;13.70;;;;;;;-141.02;100.00;44393.22;5114849;28;20200;-74
2023/12/21 05:49:01;;;;;;;17.07;16.47;;;;;;;-141.02;100.00;44412.41;5114970;28;20219;-75
2023/12/21 05:51:29;;;;;;;16.30;15.80;;;;;;;-141.02;100.00;44519.97;5114706;28;20200;-75
2023/12/21 05:53:56;;;;;;;15.23;14.73;;;;;;;-141.02;100.00;44810.00;5115018;28;20199;-74
2023/12/21 05:56:23;;;;;;;15.20;14.70;;;;;;;-141.02;100.00;44956.00;5114700;28;20290;-75
2023/12/21 05:58:50;;;;;;;14.73;14.33;;;;;;;-141.02;100.00;45201.91;5114602;28;20284;-69
2023/12/21 06:01:17;;;;;;;13.37;12.97;;;;;;;-141.02;100.00;45530.41;5114364;28;20223;-74
2023/12/21 06:03:44;;;;;;;14.30;13.90;;;;;;;-141.02;100.00;45516.97;5115009;27;20293;-74
2023/12/21 06:06:13;;;;;;;14.97;14.47;;;;;;;-141.02;100.00;45924.31;5114347;28;20197;-73
2023/12/21 06:08:41;;;;;;;14.43;14.03;;;;;;;-141.02;100.00;46028.06;5114631;28;20197;-73
2023/12/21 06:11:08;;;;;;;15.80;15.30;;;;;;;-141.02;100.00;46191.41;5114371;28;20663;-73
2023/12/21 06:13:35;;;;;;;16.37;15.87;;;;;;;-141.02;100.00;46097.25;5114510;28;20205;-73
2023/12/21 06:16:02;;;;;;;16.20;15.70;;;;;;;-141.02;100.00;46128.00;5114124;28;20199;-74
2023/12/21 06:18:30;;;;;;;13.97;13.57;;;;;;;-141.02;100.00;46226.00;5114399;28;20189;-73
2023/12/21 06:20:57;;;;;;;14.43;14.03;;;;;;;-141.02;100.00;46039.59;5114374;28;20197;-72
2023/12/21 06:23:24;;;;;;;15.23;14.73;;;;;;;-141.02;100.00;45962.75;5114064;28;20193;-73
2023/12/21 06:25:52;;;;;;;13.80;13.40;;;;;;;-141.02;100.00;45989.63;5114349;28;20195;-74
2023/12/21 06:28:19;;;;;;;17.07;16.47;;;;;;;-141.02;100.00;45981.97;5114233;28;20200;-73
2023/12/21 06:30:46;;;;;;;15.13;14.63;;;;;;;-141.02;100.00;46154.91;5114162;28;20204;-73
2023/12/21 06:33:13;;;;;;;15.20;14.70;;;;;;;-141.02;100.00;46360.53;5114183;28;20193;-72
2023/12/21 06:35:41;;;;;;;15.50;15.00;;;;;;;-141.02;100.00;46566.16;5113804;28;20734;-72
2023/12/21 06:38:07;;;;;;;15.40;14.90;;;;;;;-141.02;100.00;46827.53;5114107;28;20200;-72
2023/12/21 06:40:36;;;;;;;14.97;14.47;;;;;;;-141.02;100.00;46731.44;5114076;28;20620;-73
2023/12/21 06:43:04;;;;;;;14.10;13.70;;;;;;;-141.02;100.00;46698.78;5114490;28;20225;-72
2023/12/21 06:45:31;;;;;;;18.40;17.60;;;;;;;-141.02;100.00;46416.25;5113990;28;20193;-73
2023/12/21 06:47:59;;;;;;;13.17;12.77;;;;;;;-141.02;100.00;46087.63;5113894;28;20637;-73
2023/12/21 06:50:26;;;;;;;14.63;14.13;;;;;;;-141.02;100.00;46058.81;5113858;28;20193;-73
2023/12/21 06:52:53;;;;;;;13.50;13.10;;;;;;;-141.02;100.00;45709.09;5113521;28;20193;-73
2023/12/21 06:55:21;;;;;;;13.43;13.03;;;;;;;-141.02;100.00;45774.44;5113751;28;20228;-73
2023/12/21 06:57:48;;;;;;;13.53;13.13;;;;;;;-141.02;100.00;45947.38;5113178;28;20233;-72
2023/12/21 07:00:17;;;;;;;13.67;13.27;;;;;;;-141.02;100.00;46343.22;5113297;28;20197;-72
2023/12/21 07:02:44;;;;;;;15.87;15.37;;;;;;;-141.02;100.00;46616.13;5113252;28;20315;-72
2023/12/21 07:05:11;;;;;;;15.40;14.90;;;;;;;-141.02;100.00;45989.63;5113181;28;20242;-72
2023/12/21 07:07:38;;;;;;;16.27;15.67;;;;;;;-141.02;100.00;45636.09;5113508;28;20627;-73
2023/12/21 07:10:07;;;;;;;14.83;14.33;;;;;;;-141.02;100.00;45766.75;5113126;28;20733;-72
2023/12/21 07:12:34;;;;;;;15.47;14.97;;;;;;;-141.02;100.00;45843.59;5113437;28;20193;-72
2023/12/21 07:15:03;;;;;;;15.37;14.77;;;;;;;-141.02;100.00;46043.44;5113434;28;20280;-73
2023/12/21 07:17:31;;;;;;;15.83;15.23;;;;;;;-141.02;100.00;46210.63;5112993;28;20204;-72
2023/12/21 07:19:58;;;;;;;16.20;15.60;;;;;;;-141.02;100.00;46362.44;5113255;28;20243;-72
2023/12/21 07:22:25;;;;;;;19.47;18.77;;;;;;;-141.02;100.00;45958.91;5113231;28;20315;-72
2023/12/21 07:24:52;;;;;;;18.97;18.27;;;;;;;-141.02;100.00;45851.28;5113246;28;20190;-72
2023/12/21 07:27:19;;;;;;;17.00;16.40;;;;;;;-141.02;100.00;45666.84;5113226;28;20193;-75
2023/12/21 07:29:46;;;;;;;16.57;15.97;;;;;;;-141.02;100.00;45682.22;5113087;28;20223;-73
2023/12/21 07:32:13;;;;;;;16.83;16.23;;;;;;;-141.02;100.00;45578.44;5113116;28;20197;-73
2023/12/21 07:34:41;;;;;;;19.40;18.60;;;;;;;-141.02;100.00;45597.66;5112685;28;20574;-73
2023/12/21 07:37:09;;;;;;;21.93;21.03;;;;;;;-141.02;100.00;45855.13;5113039;27;20193;-74
2023/12/21 07:39:37;;;;;;;18.57;17.87;;;;;;;-141.02;100.00;46039.59;5112724;28;20288;-74
2023/12/21 07:42:04;;;;;;;18.33;17.63;;;;;;;-141.02;100.00;46143.38;5112499;28;20264;-74
2023/12/21 07:44:32;;;;;;;17.30;16.60;;;;;;;-141.02;100.00;46239.44;5112972;28;20229;-75
2023/12/21 07:46:59;;;;;;;16.77;16.07;;;;;;;-141.02;100.00;46047.28;5112811;28;20219;-77
2023/12/21 07:49:25;;;;;;;21.93;20.93;;;;;;;-141.02;100.00;46005.00;5112549;28;20228;-77
2023/12/21 07:51:54;;;;;;;24.07;22.97;;;;;;;-141.02;100.00;46089.56;5112821;28;20225;-78
2023/12/21 07:54:21;;;;;;;21.83;20.83;;;;;;;-141.02;100.00;45878.19;5112622;28;20276;-79
2023/12/21 07:56:48;;;;;;;20.47;19.43;;;;;;;-141.02;100.00;46266.34;5112143;28;20699;-80
2023/12/21 07:59:17;;;;;;;20.33;19.33;;;;;;;-141.02;100.00;45839.75;5112476;28;20587;-80
2023/12/21 08:01:44;;;;;;;20.27;19.27;;;;;;;-141.02;100.00;45347.91;5112648;28;20221;-79
2023/12/21 08:04:11;;;;;;;19.40;18.40;;;;;;;-141.02;100.00;45639.94;5112442;28;20197;-78
2023/12/21 08:06:38;;;;;;;21.73;20.63;;;;;;;-141.02;100.00;44907.97;5112394;28;20236;-78
2023/12/21 08:09:06;;;;;;;23.47;22.37;;;;;;;-141.02;100.00;45167.31;5112362;28;20284;-78
2023/12/21 08:11:33;;;;;;;27.40;26.00;;;;;;;-141.02;100.00;45374.81;5112434;28;20204;-77
2023/12/21 08:14:00;;;;;;;24.77;23.57;;;;;;;-141.02;100.00;45169.25;5112684;28;20189;-77
2023/12/21 08:16:27;;;;;;;23.63;22.43;;;;;;;-141.02;100.00;45138.50;5112213;28;20683;-77
2023/12/21 08:18:55;;;;;;;23.50;22.30;;;;;;;-141.02;100.00;45286.44;5112617;28;20272;-77
2023/12/21 08:21:22;;;;;;;26.53;25.23;;;;;;;-141.02;100.00;44852.28;5112064;28;20197;-77
2023/12/21 08:23:50;;;;;;;23.73;22.53;;;;;;;-141.02;100.00;45657.22;5112490;28;20293;-76
2023/12/21 08:26:18;;;;;;;22.23;21.13;;;;;;;-141.02;100.00;46012.69;5112109;28;20288;-76
2023/12/21 08:28:45;;;;;;;23.50;22.20;;;;;;;-141.02;100.00;45369.03;5112112;28;20250;-76
2023/12/21 08:31:12;;;;;;;24.97;23.57;;;;;;;-141.02;100.00;44833.06;5112453;28;20200;-76
2023/12/21 08:33:39;;;;;;;24.90;23.40;;;;;;;-141.02;100.00;44637.16;5112400;28;20241;-76
2023/12/21 08:36:07;;;;;;;22.63;21.23;;;;;;;-141.02;100.00;44445.06;5112456;28;20279;-76
2023/12/21 08:38:34;;;;;;;26.03;24.53;;;;;;;-141.02;100.00;44683.25;5112392;28;20319;-76
2023/12/21 08:41:02;;;;;;;29.97;28.27;;;;;;;-141.02;100.00;44402.81;5112383;28;20276;-77
2023/12/21 08:43:32;;;;;;;24.10;22.80;;;;;;;-141.02;100.00;44153.16;5111991;28;20228;-76
2023/12/21 08:45:59;;;;;;;30.00;28.30;;;;;;;-141.02;100.00;44256.84;5112813;28;20196;-76
2023/12/21 08:48:26;;;;;;;26.17;24.67;;;;;;;-141.02;100.00;44049.44;5112055;28;20284;-76
2023/12/21 08:50:53;;;;;;;26.60;25.10;;;;;;;-141.02;100.00;44133.94;5112209;28;20201;-76
2023/12/21 08:53:20;;;;;;;25.33;23.83;;;;;;;-141.02;100.00;44226.13;5112285;28;20197;-76
2023/12/21 08:55:47;;;;;;;25.57;24.07;;;;;;;-141.02;100.00;44249.16;5111941;28;20257;-76
2023/12/21 08:58:14;;;;;;;27.47;25.87;;;;;;;-141.02;100.00;44114.72;5111824;28;20566;-76
2023/12/21 09:00:44;;;;;;;29.60;27.90;;;;;;;-141.02;100.00;43907.31;5112521;28;20291;-77
2023/12/21 09:03:11;;;;;;;30.77;28.97;;;;;;;-141.02;100.00;44199.22;5112064;28;20224;-77
2023/12/21 09:05:38;;;;;;;30.50;28.80;;;;;;;-141.02;100.00;43980.31;5112298;28;20193;-75
2023/12/21 09:08:06;;;;;;;30.30;28.60;;;;;;;-141.02;100.00;45178.84;5114146;28;20714;-76
2023/12/21 09:10:33;;;;;;;32.33;30.33;;;;;;;-141.02;100.00;45192.28;5115892;28;20193;-77
2023/12/21 09:13:00;;;;;;;39.67;37.20;;;;;;;-141.02;100.00;45240.31;5115841;28;20193;-76
2023/12/21 09:15:28;;;;;;;36.50;34.20;;;;;;;-141.02;100.00;45367.13;5115331;28;20288;-78
2023/12/21 09:17:57;;;;;;;40.33;37.83;;;;;;;-141.02;100.00;44771.59;5115629;28;20193;-78
2023/12/21 09:20:25;;;;;;;36.43;34.13;;;;;;;-141.02;100.00;43876.59;5115559;28;20193;-78
2023/12/21 09:22:52;;;;;;;35.97;33.70;;;;;;;-141.02;100.00;43477.19;5115088;28;20612;-81
2023/12/21 09:25:19;;;;;;;36.20;33.97;;;;;;;-141.02;100.00;44001.44;5115527;28;20266;-81
2023/12/21 09:27:46;;;;;;;35.90;33.70;;;;;;;-141.02;100.00;44229.97;5115467;28;20193;-83
2023/12/21 09:30:14;;;;;;;34.70;32.50;;;;;;;-141.02;100.00;44414.34;5115175;28;20652;-85
2023/12/21 09:32:41;;;;;;;38.63;36.23;;;;;;;-141.02;100.00;44836.91;5115502;28;20200;-85
2023/12/21 09:35:11;;;;;;;41.87;39.17;;;;;;;-141.02;100.00;44640.97;5115392;28;20197;-86
2023/12/21 09:37:38;;;;;;;39.80;37.10;;;;;;;-141.02;100.00;44481.56;5116129;28;20281;-85
2023/12/21 09:40:06;;;;;;;34.67;32.37;;;;;;;-141.02;100.00;44733.19;5118921;28;20233;-90
2023/12/21 09:42:36;;;;;;;37.60;35.03;;;;;;;-141.02;100.00;44771.59;5121351;28;20228;-87
2023/12/21 09:45:05;;;;;;;42.30;39.40;;;;;;;-141.02;100.00;44153.16;5116474;28;20569;-89
2023/12/21 09:47:32;;;;;;;43.00;40.10;;;;;;;-141.02;100.00;44281.81;5116427;28;20648;-87
2023/12/21 09:50:04;;;;;;;46.17;43.07;;;;;;;-141.02;100.00;43915.00;5116177;28;20219;-88
2023/12/21 09:52:34;;;;;;;40.43;37.53;;;;;;;-141.02;100.00;43646.16;5115396;28;20271;-84
2023/12/21 09:55:03;;;;;;;40.63;37.83;;;;;;;-141.02;100.00;43596.25;5115246;28;20204;-86
2023/12/21 09:57:30;;;;;;;39.80;37.07;;;;;;;-141.02;100.00;43665.38;5114558;28;20254;-83
2023/12/21 09:59:58;;;;;;;42.60;39.70;;;;;;;-141.02;100.00;43849.72;5114937;28;20639;-79
2023/12/21 10:02:30;;;;;;;45.87;42.67;;;;;;;-141.02;94.14;43630.81;5114458;28;20233;-80
2023/12/21 10:04:57;;;;;;;48.00;44.60;;;;;;;-141.02;93.36;43294.78;5114756;28;20215;-80
2023/12/21 10:07:25;;;;;;;40.90;37.90;;;;;;;-141.02;100.00;42893.53;5114395;28;20284;-82
2023/12/21 10:09:54;;;;;;;41.30;38.40;;;;;;;-141.02;100.00;42878.16;5114436;28;20656;-79
2023/12/21 10:12:21;;;;;;;40.10;37.30;;;;;;;-141.02;100.00;42703.47;5114617;28;20327;-78
2023/12/21 10:14:57;;;;;;;38.70;36.00;;;;;;;-141.02;100.00;42974.16;5114603;27;20205;-78
2023/12/21 10:17:25;;;;;;;39.03;36.33;;;;;;;-141.02;100.00;42419.38;5114366;28;20189;-78
2023/12/21 10:19:52;;;;;;;42.03;39.13;;;;;;;-141.02;100.00;42786.03;5113929;28;20276;-77
2023/12/21 10:22:21;;;;;;;60.50;55.03;;;;;;;-141.02;100.00;42551.81;5114294;28;20229;-77
2023/12/21 10:24:50;;;;;;;38.10;35.50;;;;;;;-141.02;100.00;42620.94;5114280;28;20203;-78
2023/12/21 10:27:21;;;;;;;30.00;27.80;;;;;;;-141.02;100.00;42478.88;5113985;28;20200;-79
2023/12/21 10:29:55;;;;;;;30.20;28.10;;;;;;;-141.02;100.00;42563.34;5114267;28;20193;-77
2023/12/21 10:32:21;;;;;;;32.37;30.07;;;;;;;-141.02;100.00;42428.97;5113864;28;20196;-76
2023/12/21 10:34:49;;;;;;;29.60;27.50;;;;;;;-141.02;100.00;42597.91;5113750;28;20284;-76
2023/12/21 10:37:16;;;;;;;31.30;29.10;;;;;;;-141.02;100.00;42709.25;5114183;28;20572;-76
2023/12/21 10:39:43;;;;;;;32.07;29.77;;;;;;;-141.02;100.00;42501.91;5114020;28;20579;-79
2023/12/21 10:42:10;;;;;;;28.73;26.67;;;;;;;-141.02;100.00;42691.97;5113688;28;20193;-77
2023/12/21 10:44:38;;;;;;;29.00;26.80;;;;;;;-141.02;100.00;42663.16;5113704;28;20197;-76
2023/12/21 10:47:05;;;;;;;40.73;37.90;;;;;;;-141.02;100.00;42615.16;5113829;28;20243;-76
2023/12/21 10:49:33;;;;;;;23.33;21.33;;;;;;;-141.02;100.00;42659.31;5113961;28;20193;-77
2023/12/21 10:52:03;;;;;;;23.57;21.57;;;;;;;-141.02;100.00;42747.63;5113800;28;20242;-78
2023/12/21 10:54:32;;;;;;;23.20;21.30;;;;;;;-141.02;100.00;42835.94;5113533;28;20192;-76